Date,TemperatureHighF,TemperatureAvgF,TemperatureLowF,DewpointHighF,DewpointAvgF,DewpointLowF,HumidityHigh,HumidityAvg,HumidityLow,PressureMaxIn,PressureMinIn,WindSpeedMaxMPH,WindSpeedAvgMPH,GustSpeedMaxMPH,PrecipitationSumIn
2013-1-1,20,8,-11,19,7,-12,99,97,93,0.00,40.00,12,8,14,0.00
2013-1-2,31,18,4,31,17,3,99,93,86,0.00,40.00,18,12,21,0.00
2013-1-3,28,15,3,22,12,1,99,88,65,0.00,40.00,24,10,29,0.00
2013-1-4,29,21,4,22,17,4,99,84,72,0.00,40.00,16,8,19,0.00
2013-1-5,17,10,3,17,9,3,99,95,81,0.00,40.00,16,8,19,0.00
2013-1-6,21,16,7,20,16,7,99,99,99,0.00,40.00,21,10,23,0.00
2013-1-7,34,28,15,28,23,15,99,83,71,0.00,40.00,28,16,33,0.00
2013-1-8,36,25,12,35,24,11,99,94,76,0.00,40.00,27,14,32,0.00
2013-1-9,33,25,20,28,22,18,96,88,78,0.00,40.00,32,16,35,0.00
2013-1-10,42,33,23,35,30,23,99,89,65,0.00,40.00,24,16,30,0.00
2013-1-11,34,18,8,33,18,8,99,99,99,0.00,40.00,20,13,24,0.00
2013-1-12,8,0,-6,8,0,-8,99,96,91,0.00,40.00,18,12,21,0.00
2013-1-13,5,-1,-8,4,-3,-9,94,91,87,0.00,40.00,9,5,11,0.00
2013-1-14,9,1,-5,5,-1,-7,96,90,84,0.00,40.00,12,6,13,0.00
2013-1-15,34,14,-1,34,11,-2,99,91,78,0.00,40.00,17,10,21,0.00
2013-1-16,38,9,-5,37,4,-11,99,79,60,0.00,40.00,21,13,27,0.00
2013-1-17,13,6,-3,8,2,-8,97,84,67,0.00,40.00,14,7,16,0.00
2013-1-18,19,15,9,18,14,8,99,97,94,0.00,40.00,12,5,14,0.00
2013-1-19,31,7,-6,29,4,-10,99,89,81,0.00,40.00,31,16,35,0.00
2013-1-20,-2,-6,-12,-6,-11,-18,87,81,71,0.00,40.00,21,13,25,0.00
2013-1-21,-9,-13,-17,-14,-18,-21,82,79,75,0.00,40.00,19,12,21,0.00
2013-1-22,6,-4,-17,3,-9,-19,91,81,67,0.00,40.00,10,5,12,0.00
2013-1-23,4,-7,-17,2,-11,-21,95,84,74,0.00,40.00,21,12,29,0.00
2013-1-24,9,-5,-17,8,-9,-20,95,85,79,0.00,40.00,28,14,32,0.00
2013-1-25,12,-1,-10,10,-4,-12,94,87,82,0.00,40.00,26,13,32,0.00
2013-1-26,13,5,-10,9,2,-12,95,89,84,0.00,40.00,18,12,21,0.00
2013-1-27,24,14,4,20,12,3,99,94,75,0.00,40.00,7,4,8,0.00
2013-1-28,26,22,16,25,21,16,99,97,90,0.00,40.00,9,4,11,0.00
2013-1-29,23,20,13,23,19,10,99,97,87,0.00,40.00,18,10,22,0.00
2013-1-30,13,5,-5,10,2,-8,95,90,88,0.00,40.00,17,14,21,0.00
2013-1-31,-5,-12,-16,-8,-16,-20,89,81,76,0.00,40.00,20,15,23,0.00
2013-2-1,-2,-10,-18,-5,-13,-22,93,86,81,0.00,40.00,11,6,12,0.00
2013-2-2,8,-1,-11,5,-3,-12,95,93,87,0.00,40.00,16,7,18,0.00
2013-2-3,8,3,-4,4,-2,-7,93,81,62,0.00,40.00,11,4,14,0.00
2013-2-4,31,10,0,30,8,-3,99,91,84,0.00,40.00,20,12,24,0.00
2013-2-5,29,8,1,28,7,1,99,94,86,0.00,40.00,19,10,22,0.00
2013-2-6,19,15,10,18,15,9,99,99,96,0.00,40.00,12,9,16,0.00
2013-2-7,12,7,0,12,6,0,99,96,87,0.00,40.00,12,5,16,0.00
2013-2-8,23,19,10,23,18,10,99,98,93,0.00,40.00,23,14,26,0.00
2013-2-9,28,26,23,28,25,23,99,99,99,0.00,40.00,17,6,20,0.00
2013-2-10,29,26,22,29,26,22,99,99,99,0.00,40.00,27,14,34,0.00
2013-2-11,24,20,15,22,18,13,99,92,78,0.00,40.00,27,14,34,0.00
2013-2-12,33,25,12,28,22,11,99,88,70,0.00,40.00,19,11,23,0.00
2013-2-13,31,25,18,27,23,18,99,95,77,0.00,40.00,10,6,12,0.00
2013-2-14,21,13,7,21,11,5,99,90,78,0.00,40.00,16,11,19,0.00
2013-2-15,18,7,-1,12,5,-1,99,93,78,0.00,40.00,11,5,12,0.00
2013-2-16,16,7,-4,16,7,-4,99,98,94,0.00,40.00,18,10,22,0.00
2013-2-17,31,24,16,31,24,16,99,99,99,0.00,40.00,22,16,25,0.00
2013-2-18,29,8,-5,29,7,-6,99,97,93,0.00,40.00,33,23,40,0.00
2013-2-19,-5,-9,-13,-6,-12,-16,94,86,84,0.00,40.00,22,14,26,0.00
2013-2-20,3,-6,-17,-2,-10,-19,92,86,74,0.00,40.00,9,4,11,0.00
2013-2-21,16,7,-4,10,3,-5,96,85,73,0.00,40.00,12,5,13,0.00
2013-2-22,17,11,2,15,9,2,99,94,84,0.00,40.00,8,5,9,0.00
2013-2-23,20,13,5,18,13,4,99,98,91,0.00,40.00,9,5,10,0.00
2013-2-24,25,13,-1,25,12,-2,99,98,93,0.00,40.00,11,6,12,0.00
2013-2-25,35,21,6,29,19,6,99,93,80,0.00,40.00,14,8,16,0.00
2013-2-26,27,17,9,26,17,9,99,98,94,0.00,40.00,12,7,14,0.00
2013-2-27,28,22,13,27,21,13,99,98,95,0.00,40.00,19,12,24,0.00
2013-2-28,25,21,13,24,20,12,99,97,90,0.00,40.00,13,9,17,0.00
2013-3-1,25,15,6,19,13,6,99,93,78,0.00,40.00,7,5,9,0.00
2013-3-2,24,17,7,22,16,6,99,96,89,0.00,40.00,21,10,24,0.00
2013-3-3,30,24,16,26,22,15,99,93,68,0.00,40.00,17,11,22,0.00
2013-3-4,27,25,24,26,25,23,99,98,93,0.00,40.00,18,15,22,0.00
2013-3-5,25,21,18,25,21,18,99,98,94,0.00,40.00,17,12,20,0.00
2013-3-6,29,19,7,21,16,7,99,89,67,0.00,40.00,9,4,10,0.00
2013-3-7,27,15,-1,24,14,-1,99,96,88,0.00,40.00,16,6,19,0.00
2013-3-8,32,27,21,27,25,21,99,92,78,0.00,40.00,14,7,15,0.00
2013-3-9,30,25,21,28,24,20,99,95,83,0.00,40.00,20,11,24,0.00
2013-3-10,24,17,8,23,14,5,99,88,73,0.00,40.00,21,13,25,0.00
2013-3-11,27,17,6,19,12,4,99,85,61,0.00,40.00,7,3,8,0.00
2013-3-12,23,18,7,21,16,6,99,94,87,0.00,40.00,18,12,24,0.00
2013-3-13,19,8,-11,19,6,-11,99,93,84,0.00,40.00,17,9,19,0.00
2013-3-14,35,21,6,28,19,6,99,92,70,0.00,40.00,16,6,20,0.00
2013-3-15,21,11,1,21,11,1,99,98,94,0.00,40.00,21,16,24,0.00
2013-3-16,11,0,-16,6,-2,-17,99,91,79,0.00,40.00,14,9,16,0.00
2013-3-17,19,1,-20,18,0,-21,99,95,91,0.00,40.00,19,10,25,0.00
2013-3-18,21,15,6,21,14,3,99,95,86,0.00,40.00,29,18,33,0.00
2013-3-19,13,6,-4,4,-1,-8,87,75,61,0.00,40.00,16,12,19,0.00
2013-3-20,16,6,-2,6,0,-5,88,77,61,0.00,40.00,14,11,16,0.00
2013-3-21,16,10,1,9,5,-3,99,82,73,0.00,40.00,7,4,8,0.00
2013-3-22,20,9,-1,13,6,-1,99,92,75,0.00,40.00,7,5,8,0.00
2013-3-23,29,20,9,22,16,8,99,88,71,0.00,40.00,8,5,8,0.00
2013-3-24,26,23,20,23,22,20,99,97,90,0.00,40.00,15,10,17,0.00
2013-3-25,26,21,13,23,19,12,99,92,80,0.00,40.00,15,10,17,0.00
2013-3-26,35,15,1,19,11,1,99,85,49,0.00,40.00,9,4,9,0.00
2013-3-27,31,13,-5,23,11,-5,99,92,68,0.00,40.00,4,2,5,0.00
2013-3-28,38,24,5,33,22,5,99,94,77,0.00,40.00,9,3,9,0.00
2013-3-29,33,27,18,33,27,18,99,99,99,0.00,40.00,6,3,6,0.00
2013-3-30,38,34,29,34,31,-100,99,95,82,0.00,40.00,14,6,16,0.00
2013-3-31,33,24,13,33,20,10,99,85,73,0.00,40.00,22,15,27,0.00
2013-4-1,28,18,6,19,13,5,94,82,65,0.00,40.00,12,8,13,0.00
2013-4-2,31,21,12,21,16,11,99,84,61,0.00,40.00,9,5,10,0.00
2013-4-3,39,28,16,38,27,16,99,96,80,0.00,40.00,26,14,28,0.00
2013-4-4,36,28,18,32,25,17,96,87,80,0.00,40.00,20,12,24,0.00
2013-4-5,31,24,12,31,22,12,99,96,84,0.00,40.00,16,7,19,0.00
2013-4-6,36,32,28,36,32,28,99,99,99,0.00,40.00,14,7,17,0.00
2013-4-7,35,33,31,33,32,31,99,97,88,0.00,40.00,12,5,13,0.00
2013-4-8,32,23,15,32,21,11,99,91,78,0.00,40.00,21,16,26,0.00
2013-4-9,26,17,9,18,12,5,95,80,67,0.00,40.00,17,11,21,0.00
2013-4-10,32,25,18,28,22,17,99,92,78,0.00,40.00,13,8,16,0.00
2013-4-11,33,29,26,28,26,23,99,90,68,0.00,40.00,16,10,17,0.00
2013-4-12,32,29,28,32,29,28,99,99,97,0.00,40.00,14,9,17,0.00
2013-4-13,34,30,25,29,27,25,99,90,76,0.00,40.00,10,6,11,0.00
2013-4-14,39,32,25,35,28,25,99,90,66,0.00,40.00,21,13,26,0.00
2013-4-15,33,32,31,33,32,30,99,99,99,0.00,40.00,22,17,24,0.00
2013-4-16,32,30,28,32,30,28,99,96,89,0.00,40.00,16,10,18,0.00
2013-4-17,34,31,28,33,30,28,99,95,85,0.00,40.00,11,6,13,0.00
2013-4-18,36,32,29,33,28,24,99,86,65,0.00,40.00,22,14,26,0.00
2013-4-19,33,29,24,26,24,21,89,81,72,0.00,40.00,22,15,26,0.00
2013-4-20,33,25,17,29,21,16,96,85,64,0.00,40.00,13,7,15,0.00
2013-4-21,39,34,30,38,33,29,99,97,91,0.00,40.00,22,15,27,0.00
2013-4-22,34,30,25,30,26,24,96,86,72,0.00,40.00,16,11,18,0.00
2013-4-23,39,30,21,31,26,21,99,84,62,0.00,40.00,11,8,12,0.00
2013-4-24,39,32,24,36,31,24,99,96,86,0.00,40.00,21,10,25,0.00
2013-4-25,40,34,25,39,32,25,99,93,83,0.00,40.00,21,12,23,0.00
2013-4-26,60,47,33,52,42,33,99,83,55,0.00,40.00,11,6,13,0.00
2013-4-27,68,57,45,59,49,40,99,74,55,0.00,40.00,24,13,26,0.00
2013-4-28,61,51,41,53,44,36,99,79,54,0.00,40.00,24,11,29,0.00
2013-4-29,61,47,32,50,41,31,99,82,55,0.00,40.00,20,9,21,0.00
2013-4-30,51,46,33,49,42,28,99,88,70,0.00,40.00,29,16,36,0.00
2013-5-1,41,34,31,31,28,25,99,80,66,0.00,40.00,18,12,21,0.00
2013-5-2,36,32,29,31,28,26,99,87,71,0.00,40.00,13,6,16,0.00
2013-5-3,48,37,25,40,30,25,99,79,53,0.00,40.00,11,5,14,0.00
2013-5-4,53,43,33,42,33,28,99,73,45,0.00,40.00,17,8,18,0.00
2013-5-5,60,49,37,43,40,37,99,77,47,0.00,40.00,16,6,19,0.00
2013-5-6,72,56,38,49,41,37,99,65,30,0.00,40.00,7,4,8,0.00
2013-5-7,76,61,44,54,48,44,99,67,37,0.00,40.00,18,7,21,0.00
2013-5-8,63,54,46,51,44,31,99,73,49,0.00,40.00,24,14,30,0.00
2013-5-9,61,48,33,37,32,25,96,59,27,0.00,40.00,21,13,24,0.00
2013-5-10,67,47,30,45,34,-100,99,67,38,0.00,40.00,29,12,35,0.00
2013-5-11,50,42,35,38,28,-100,99,64,37,0.00,40.00,25,16,30,0.00
2013-5-12,63,47,25,31,27,25,99,53,24,0.00,40.00,12,5,14,0.00
2013-5-13,89,65,49,53,38,27,60,38,23,0.00,40.00,26,17,32,0.00
2013-5-14,76,66,56,64,52,42,99,63,41,0.00,40.00,37,17,42,0.00
2013-5-15,79,62,47,51,46,42,99,63,29,0.00,40.00,14,8,18,0.00
2013-5-16,73,51,44,58,26,-100,99,75,33,0.00,40.00,12,5,15,0.00
2013-5-17,72,61,53,57,45,-100,99,73,45,0.00,40.00,16,9,18,0.00
2013-5-18,64,60,56,63,59,56,99,99,96,0.00,40.00,12,7,14,0.00
2013-5-19,61,56,52,61,56,52,99,99,99,0.00,40.00,24,15,30,0.00
2013-5-20,56,53,51,56,53,51,99,99,99,0.00,40.00,26,17,29,0.00
2013-5-21,51,46,43,51,46,43,99,99,99,0.00,40.00,22,17,26,0.00
2013-5-22,73,67,58,50,43,38,66,44,34,0.00,40.00,21,14,25,0.00
2013-5-23,65,56,43,47,39,33,99,59,31,0.00,40.00,11,7,17,0.00
2013-5-24,65,54,42,53,44,33,99,71,39,0.00,40.00,21,11,26,0.00
2013-5-25,71,60,51,57,54,51,99,84,57,0.00,40.00,21,13,24,0.00
2013-5-26,61,58,55,56,54,49,99,88,74,0.00,40.00,18,12,21,0.00
2013-5-27,66,60,54,62,56,49,99,86,72,0.00,40.00,14,8,17,0.00
2013-5-28,74,63,58,63,60,56,99,88,53,0.00,40.00,18,11,21,0.00
2013-5-29,76,66,56,64,60,56,99,85,57,0.00,40.00,11,5,12,0.00
2013-5-30,76,66,60,70,65,60,99,96,74,0.00,40.00,17,11,20,0.00
2013-5-31,67,62,50,65,60,50,99,94,81,0.00,40.00,22,10,31,0.00
2013-6-1,57,50,46,50,46,-100,99,92,74,0.00,40.00,21,16,31,0.00
2013-6-2,61,52,42,49,44,39,99,77,44,0.00,40.00,11,6,12,0.00
2013-6-3,61,54,42,50,43,40,99,70,47,0.00,40.00,12,6,15,0.00
2013-6-4,61,54,50,58,53,50,99,95,74,0.00,40.00,20,12,25,0.00
2013-6-5,53,53,52,53,53,52,99,99,99,0.00,40.00,13,11,16,0.00
2013-6-7,73,60,52,60,56,52,99,87,51,0.00,40.00,16,8,18,0.00
2013-6-8,73,63,53,60,56,52,99,79,52,0.00,40.00,17,10,23,0.00
2013-6-9,61,58,56,61,58,56,99,99,95,0.00,40.00,11,4,12,0.00
2013-6-10,74,62,52,69,60,52,99,94,76,0.00,40.00,14,6,15,0.00
2013-6-11,80,64,53,59,54,52,99,75,39,0.00,40.00,9,4,10,0.00
2013-6-12,72,66,58,61,57,53,99,74,52,0.00,40.00,12,7,15,0.00
2013-6-13,77,67,56,60,57,54,99,75,47,0.00,40.00,10,5,12,0.00
2013-6-14,79,69,61,70,63,59,99,83,60,0.00,40.00,20,9,24,0.00
2013-6-15,79,68,57,67,55,50,99,67,36,0.00,40.00,21,11,28,0.00
2013-6-16,78,68,58,59,57,55,95,70,45,0.00,40.00,22,12,27,0.00
2013-6-17,76,65,58,63,58,52,99,81,48,0.00,40.00,12,7,16,0.00
2013-6-18,77,67,55,63,58,54,99,75,50,0.00,40.00,11,6,13,0.00
2013-6-19,88,75,59,64,61,57,97,64,41,0.00,40.00,9,6,12,0.00
2013-6-20,76,70,62,69,65,61,99,85,68,0.00,40.00,11,6,14,0.00
2013-6-22,81,76,68,72,69,67,99,82,63,0.00,40.00,9,6,11,0.00
2013-6-23,75,69,63,70,64,57,99,87,58,0.00,40.00,24,10,26,0.00
2013-6-24,85,72,60,69,61,59,99,72,41,0.00,40.00,14,10,18,0.00
2013-6-25,86,74,64,76,71,64,99,90,72,0.00,40.00,26,9,28,0.00
2013-6-26,84,74,64,72,67,63,99,81,50,0.00,40.00,16,8,22,0.00
2013-6-27,82,75,67,67,64,59,97,72,48,0.00,40.00,21,12,26,0.00
2013-6-28,78,71,64,67,64,59,99,80,59,0.00,40.00,17,12,21,0.00
2013-6-29,80,70,60,66,62,58,99,78,47,0.00,40.00,14,8,16,0.00
2013-6-30,84,72,60,66,60,55,99,70,38,0.00,40.00,11,5,13,0.00
2013-7-1,86,73,61,66,60,54,99,70,33,0.00,40.00,4,3,6,0.00
2013-7-2,87,76,63,67,62,57,99,68,36,0.00,40.00,6,3,6,0.00
2013-7-3,87,76,63,66,63,59,99,67,39,0.00,40.00,15,6,20,0.00
2013-7-4,87,76,64,72,66,60,95,72,51,0.00,40.00,17,10,22,0.00
2013-7-5,87,78,67,72,68,65,99,74,48,0.00,40.00,6,4,9,0.00
2013-7-6,84,72,66,74,70,64,99,91,68,0.00,40.00,19,6,22,0.00
2013-7-7,82,75,67,71,64,59,99,71,45,0.00,40.00,14,8,16,0.00
2013-7-8,87,73,60,70,64,60,99,79,47,0.00,40.00,12,5,14,0.00
2013-7-9,73,66,60,71,63,60,99,90,71,0.00,40.00,17,9,20,0.00
2013-7-10,79,69,58,65,55,-100,99,68,47,0.00,40.00,12,7,14,0.00
2013-7-11,86,73,58,72,65,57,99,78,57,0.00,40.00,19,10,22,0.00
2013-7-12,84,76,69,76,73,69,99,92,77,0.00,40.00,17,8,19,0.00
2013-7-13,87,76,63,76,70,62,99,85,57,0.00,40.00,11,4,12,0.00
2013-7-14,77,71,64,76,65,62,99,85,62,0.00,40.00,15,8,19,0.00
2013-7-15,79,70,64,76,68,63,99,93,79,0.00,40.00,14,6,18,0.00
2013-7-16,89,77,68,74,70,67,99,81,57,0.00,40.00,18,9,24,0.00
2013-7-17,79,72,66,68,64,57,99,79,53,0.00,40.00,14,7,17,0.00
2013-7-18,86,75,63,76,70,62,99,85,70,0.00,40.00,16,7,18,0.00
2013-7-19,81,72,63,73,65,59,99,81,51,0.00,40.00,15,10,19,0.00
2013-7-20,69,61,54,59,51,-100,95,76,54,0.00,40.00,11,6,14,0.00
2013-7-21,80,64,49,73,58,49,99,83,54,0.00,40.00,11,4,13,0.00
2013-7-22,71,65,57,70,62,57,99,88,74,0.00,40.00,14,10,17,0.00
2013-7-23,72,62,52,62,56,52,99,85,55,0.00,40.00,7,4,9,0.00
2013-7-24,81,68,54,64,59,54,99,77,51,0.00,40.00,17,7,21,0.00
2013-7-25,76,66,58,67,59,53,99,80,46,0.00,40.00,18,9,24,0.00
2013-7-26,66,60,52,58,51,46,99,77,52,0.00,40.00,16,12,24,0.00
2013-7-27,69,59,48,54,49,46,99,74,46,0.00,40.00,19,9,22,0.00
2013-7-28,75,62,46,56,50,45,99,72,37,0.00,40.00,7,3,8,0.00
2013-7-29,76,63,48,64,56,48,99,82,56,0.00,40.00,16,7,18,0.00
2013-7-30,73,67,60,67,62,60,99,87,67,0.00,40.00,12,7,15,0.00
2013-7-31,73,64,56,61,56,51,99,77,49,0.00,40.00,18,10,22,0.00
2013-8-1,77,66,53,61,56,52,99,74,45,0.00,40.00,16,7,19,0.00
2013-8-2,74,64,52,60,56,52,99,78,49,0.00,40.00,11,6,16,0.00
2013-8-3,73,63,54,57,52,48,99,72,42,0.00,40.00,9,4,11,0.00
2013-8-4,73,62,51,65,57,50,99,83,61,0.00,40.00,12,6,16,0.00
2013-8-5,76,65,57,63,59,56,99,85,49,0.00,40.00,10,6,12,0.00
2013-8-6,67,62,53,66,60,52,99,94,65,0.00,40.00,11,6,15,0.00
2013-8-7,71,58,50,57,53,49,99,86,57,0.00,40.00,7,4,10,0.00
2013-8-9,67,64,58,59,57,54,99,79,68,0.00,40.00,14,8,18,0.00
2013-8-10,75,64,52,62,57,52,99,81,48,0.00,40.00,7,3,9,0.00
2013-8-11,76,65,57,62,57,53,99,79,46,0.00,40.00,8,4,11,0.00
2013-8-12,75,64,53,62,55,49,99,76,47,0.00,40.00,12,6,15,0.00
2013-8-13,75,61,48,54,48,-100,99,69,37,0.00,40.00,8,4,8,0.00
2013-8-14,80,63,46,56,51,46,99,71,36,0.00,40.00,8,3,10,0.00
2013-8-15,78,62,56,66,53,-100,99,84,60,0.00,40.00,8,4,10,0.00
2013-8-16,80,68,60,63,57,-100,99,75,49,0.00,40.00,15,9,21,0.00
2013-8-17,80,68,58,71,64,-100,99,89,73,0.00,40.00,15,10,18,0.00
2013-8-18,89,76,66,77,71,65,99,89,57,0.00,40.00,17,10,21,0.00
2013-8-19,90,71,62,77,62,-100,99,86,50,0.00,40.00,9,4,11,0.00
2013-8-20,92,76,65,75,70,65,99,84,52,0.00,40.00,12,5,16,0.00
2013-8-21,81,70,59,63,57,50,99,68,39,0.00,40.00,12,7,15,0.00
2013-8-22,80,65,51,56,52,50,99,66,40,0.00,40.00,7,4,11,0.00
2013-8-23,81,68,52,72,61,52,99,80,56,0.00,40.00,16,7,19,0.00
2013-8-24,90,80,72,81,74,-100,99,86,67,0.00,40.00,16,10,19,0.00
2013-8-25,96,84,69,75,72,69,99,71,41,0.00,40.00,6,3,7,0.00
2013-8-26,86,74,65,76,71,65,99,90,65,0.00,40.00,9,3,11,0.00
2013-8-27,90,71,60,71,65,59,99,84,45,0.00,40.00,4,2,5,0.00
2013-8-28,92,88,73,76,72,69,96,63,52,0.00,40.00,10,6,12,0.00
2013-8-29,84,74,67,76,71,67,99,91,72,0.00,40.00,13,6,18,0.00
2013-8-30,83,72,63,74,68,62,99,90,61,0.00,40.00,7,3,9,0.00
2013-8-31,84,72,63,73,65,-100,99,82,52,0.00,40.00,19,8,24,0.00
2013-9-1,69,61,53,64,55,49,99,83,55,0.00,40.00,14,10,19,0.00
2013-9-2,72,58,43,58,50,43,99,78,44,0.00,40.00,8,4,9,0.00
2013-9-3,90,70,52,67,60,52,99,76,40,0.00,40.00,11,6,14,0.00
2013-9-4,71,61,49,61,51,47,99,73,46,0.00,40.00,12,5,16,0.00
2013-9-5,84,66,48,69,59,47,99,80,56,0.00,40.00,12,5,16,0.00
2013-9-6,94,77,64,75,70,64,99,82,47,0.00,40.00,7,4,9,0.00
2013-9-7,81,71,63,74,62,52,99,75,47,0.00,40.00,17,10,21,0.00
2013-9-8,66,63,60,65,61,54,99,96,67,0.00,40.00,8,4,9,0.00
2013-9-9,69,65,63,68,64,62,99,99,99,0.00,40.00,10,6,12,0.00
2013-9-10,78,67,55,66,61,54,99,84,53,0.00,40.00,11,5,12,0.00
2013-9-11,77,66,56,63,55,46,99,73,35,0.00,40.00,20,8,24,0.00
2013-9-12,70,60,49,57,52,48,99,79,47,0.00,40.00,8,4,11,0.00
2013-9-13,77,62,46,55,51,46,99,73,40,0.00,40.00,15,8,18,0.00
2013-9-14,67,59,54,62,57,-100,99,94,80,0.00,40.00,15,6,19,0.00
2013-9-15,63,53,43,54,44,39,99,76,42,0.00,40.00,16,8,19,0.00
2013-9-16,69,52,34,52,45,34,99,79,51,0.00,40.00,14,8,18,0.00
2013-9-17,64,58,50,63,56,44,99,93,63,0.00,40.00,16,11,19,0.00
2013-9-18,64,61,59,64,61,59,99,99,99,0.00,40.00,12,7,15,0.00
2013-9-19,73,64,55,65,59,54,99,87,58,0.00,40.00,19,9,21,0.00
2013-9-20,58,54,50,55,50,45,99,87,65,0.00,40.00,18,8,21,0.00
2013-9-21,61,50,38,48,42,-100,99,77,51,0.00,40.00,7,3,9,0.00
2013-9-22,78,61,44,59,52,43,99,74,48,0.00,40.00,22,12,29,0.00
2013-9-23,79,70,62,62,56,54,99,63,46,0.00,40.00,21,16,27,0.00
2013-9-24,79,66,56,62,50,39,99,67,24,0.00,40.00,12,5,16,0.00
2013-9-25,77,62,45,58,53,44,99,76,50,0.00,40.00,21,10,30,0.00
2013-9-26,77,66,60,64,60,55,94,80,63,0.00,40.00,21,11,26,0.00
2013-9-27,60,53,49,56,52,49,99,96,85,0.00,40.00,11,5,13,0.00
2013-9-28,62,52,49,54,48,-100,99,91,56,0.00,40.00,15,7,17,0.00
2013-9-29,77,59,46,54,48,45,99,72,36,0.00,40.00,13,8,16,0.00
2013-9-30,75,64,55,55,51,45,95,67,35,0.00,40.00,9,5,12,0.00
2013-10-1,62,55,50,42,39,35,74,55,37,0.00,40.00,7,6,9,0.00
2013-10-2,57,51,42,55,48,41,99,90,73,0.00,40.00,9,4,11,0.00
2013-10-3,55,48,39,50,44,39,99,88,68,0.00,40.00,13,7,17,0.00
2013-10-4,45,41,39,45,39,36,99,93,80,0.00,40.00,21,16,27,0.00
2013-10-5,46,42,39,45,42,39,99,99,99,0.00,40.00,20,16,26,0.00
2013-10-6,67,49,34,45,40,33,99,75,41,0.00,40.00,14,7,17,0.00
2013-10-7,64,51,40,47,43,40,99,77,46,0.00,40.00,10,5,14,0.00
2013-10-8,71,55,44,54,49,44,99,82,50,0.00,40.00,10,6,14,0.00
2013-10-9,68,55,45,53,46,41,99,74,46,0.00,40.00,7,4,7,0.00
2013-10-10,70,57,47,58,53,47,99,87,62,0.00,40.00,11,4,14,0.00
2013-10-11,67,61,56,64,59,56,99,93,73,0.00,40.00,20,11,27,0.00
2013-10-12,56,49,42,56,43,-100,99,85,52,0.00,40.00,24,14,29,0.00
2013-10-13,58,45,35,40,35,32,99,74,38,0.00,40.00,8,3,9,0.00
2013-10-14,48,45,40,48,45,40,99,99,99,0.00,40.00,20,7,29,0.00
2013-10-15,46,42,33,43,40,33,99,94,75,0.00,40.00,19,12,24,0.00
2013-10-16,61,45,32,48,38,31,99,80,42,0.00,40.00,15,7,18,0.00
2013-10-17,48,43,32,47,37,31,99,80,53,0.00,40.00,18,9,21,0.00
2013-10-18,46,39,32,40,36,32,99,88,65,0.00,40.00,16,7,18,0.00
2013-10-19,44,38,35,39,34,-100,99,88,66,0.00,40.00,13,7,16,0.00
2013-10-20,38,35,33,37,31,23,99,87,64,0.00,40.00,17,10,22,0.00
2013-10-21,38,33,28,29,26,21,83,74,67,0.00,40.00,14,10,18,0.00
2013-10-22,38,35,33,34,31,27,95,88,76,0.00,40.00,10,6,12,0.00
2013-10-23,38,34,30,35,29,27,99,82,74,0.00,40.00,11,6,15,0.00
2013-10-24,42,38,32,35,32,29,99,81,66,0.00,40.00,14,8,16,0.00
2013-10-25,59,42,29,41,33,28,99,75,39,0.00,40.00,24,13,27,0.00
2013-10-26,43,38,32,32,29,-100,93,73,61,0.00,40.00,14,9,17,0.00
2013-10-27,44,38,25,36,31,22,95,78,64,0.00,40.00,22,14,28,0.00
2013-10-28,32,26,21,24,21,18,99,85,64,0.00,40.00,13,8,15,0.00
2013-10-29,37,28,17,28,22,16,99,83,55,0.00,40.00,7,3,8,0.00
2013-10-30,40,37,33,39,34,28,99,90,79,0.00,40.00,7,4,9,0.00
2013-10-31,46,40,38,41,39,38,99,97,83,0.00,40.00,7,4,8,0.00
2014-1-2,-6,-10,-12,-12,-16,-18,77,74,69,0.00,40.00,24,13,27,0.00